Auberry, California
Current Conditions -  °F | °C
As of 1:53 PM on Sunday 25 Jan 2015 (Local Time) from KFAT Reporting Station
Haze Haze  
Wind Chill: 49°   Ceiling: Unl
Heat Index: 49°   Visibility: 6mi
Dew Point: 41°   Wind: 0mph
Humidity: 74%   Direction: NA
Pressure: 30.1"   Gusts: NA
Location:  37.08°N, 119.49°W
Report Text: KFAT 252153Z 00000KT 6SM HZ CLR 09/05 A3010 RMK AO2 SLP192 T00940050 $
Loading
Personal Weather Stations






























Interactive Weather Map New forecast layout! Learn more

10-Day Weather Forecast

Advertisements
Track Severe Weather on mobile